Time;durP1;ratioP1;P1;durP2;ratioP2;P2;SDS_P1;SDS_P2;PMS_P1;PMS_P2;Temp;Humidity;BMP_temperature;BMP_pressure;BME280_temperature;BME280_humidity;BME280_pressure;Samples;Min_cycle;Max_cycle;Signal;HPM_P1;HPM_P2
2022/09/05 00:01:24;;;;;;;7.35;2.72;;;18.80;99.90;;;;;;5094333;28;20043;-51
2022/09/05 00:04:04;;;;;;;4.80;2.50;;;18.70;99.90;;;;;;5094108;28;20572;-48
2022/09/05 00:06:38;;;;;;;11.52;2.90;;;18.50;99.90;;;;;;5092967;28;20116;-48
2022/09/05 00:09:17;;;;;;;4.15;2.28;;;18.60;99.90;;;;;;5093750;27;24049;-50
2022/09/05 00:11:55;;;;;;;7.57;2.35;;;18.60;99.90;;;;;;5093826;27;20139;-49
2022/09/05 00:14:39;;;;;;;8.40;2.38;;;18.50;99.90;;;;;;5094567;28;20237;-51
2022/09/05 00:17:16;;;;;;;6.45;2.33;;;18.50;99.90;;;;;;5093635;27;20097;-51
2022/09/05 00:20:03;;;;;;;6.22;2.22;;;18.40;99.90;;;;;;5095014;27;20111;-49
2022/09/05 00:22:39;;;;;;;6.47;2.42;;;18.40;99.90;;;;;;5094337;28;20050;-50
2022/09/05 00:25:28;;;;;;;6.20;2.53;;;18.40;99.90;;;;;;5093895;27;20474;-48
2022/09/05 00:28:00;;;;;;;6.75;2.53;;;18.40;99.90;;;;;;5072688;28;20086;-50
2022/09/05 00:30:42;;;;;;;7.75;2.17;;;20.10;99.90;;;;;;5093861;28;20722;-48
2022/09/05 00:33:36;;;;;;;5.85;2.58;;;18.50;99.90;;;;;;5093051;28;20032;-49
2022/09/05 00:36:17;;;;;;;7.00;2.33;;;18.50;99.90;;;;;;5088592;28;20066;-48
2022/09/05 00:39:02;;;;;;;6.28;2.67;;;18.40;99.90;;;;;;5093543;28;20591;-47
2022/09/05 00:41:28;;;;;;;5.22;2.42;;;18.30;99.90;;;;;;5093428;28;20082;-47
2022/09/05 00:43:56;;;;;;;6.55;2.63;;;18.50;99.90;;;;;;5093045;28;20503;-50
2022/09/05 00:46:28;;;;;;;5.40;2.33;;;18.10;99.90;;;;;;5092388;28;20098;-46
2022/09/05 00:49:08;;;;;;;7.60;3.15;;;18.30;99.90;;;;;;5092954;28;20047;-47
2022/09/05 00:51:53;;;;;;;6.88;2.65;;;18.20;99.90;;;;;;5095047;28;20575;-46
2022/09/05 00:54:32;;;;;;;7.22;2.53;;;18.10;99.90;;;;;;5092738;28;20304;-45
2022/09/05 00:57:35;;;;;;;6.55;2.60;;;18.20;99.90;;;;;;5093459;28;20051;-45
2022/09/05 01:00:16;;;;;;;5.68;2.47;;;18.10;99.90;;;;;;5069251;28;20148;-46
2022/09/05 01:02:45;;;;;;;5.65;2.67;;;18.30;99.90;;;;;;5092463;28;20572;-48
2022/09/05 01:05:16;;;;;;;5.20;2.38;;;18.10;99.90;;;;;;5092351;28;20114;-49
2022/09/05 01:08:21;;;;;;;6.18;2.70;;;18.20;99.90;;;;;;5092413;28;20036;-51
2022/09/05 01:11:26;;;;;;;7.18;2.63;;;18.20;99.90;;;;;;5092306;28;20059;-49
2022/09/05 01:14:28;;;;;;;4.47;2.50;;;18.30;99.90;;;;;;5050406;28;20176;-49
2022/09/05 01:16:57;;;;;;;6.97;3.00;;;17.90;99.90;;;;;;5093040;28;20078;-44
2022/09/05 01:19:57;;;;;;;7.90;3.47;;;18.10;99.90;;;;;;5093284;28;20772;-50
2022/09/05 01:22:40;;;;;;;5.68;2.92;;;18.00;99.90;;;;;;5084913;27;20054;-49
2022/09/05 01:25:23;;;;;;;8.32;3.00;;;17.90;99.90;;;;;;5097539;27;20058;-46
2022/09/05 01:28:12;;;;;;;7.72;2.88;;;17.90;99.90;;;;;;5096892;27;20530;-49
2022/09/05 01:30:49;;;;;;;5.43;2.80;;;17.90;99.90;;;;;;5074642;27;20051;-47
2022/09/05 01:33:28;;;;;;;5.72;3.00;;;18.00;99.90;;;;;;5096721;27;20032;-48
2022/09/05 01:36:30;;;;;;;6.72;3.25;;;17.90;99.90;;;;;;5097424;27;20054;-48
2022/09/05 01:38:56;;;;;;;;;;;17.90;99.90;;;;;;5097548;27;20798;-47
2022/09/05 01:41:47;;;;;;;5.95;2.83;;;17.80;99.90;;;;;;5096333;27;20090;-47
2022/09/05 01:44:57;;;;;;;4.53;2.70;;;17.90;99.90;;;;;;5095647;27;20457;-46
2022/09/05 01:47:53;;;;;;;9.25;3.17;;;17.80;99.90;;;;;;5095709;27;20051;-49
2022/09/05 01:50:39;;;;;;;6.13;2.90;;;17.60;99.90;;;;;;5095775;27;20059;-49
2022/09/05 01:53:10;;;;;;;7.50;3.08;;;17.70;99.90;;;;;;5096906;27;20071;-50
2022/09/05 01:56:02;;;;;;;;;;;17.70;99.90;;;;;;5097359;27;20039;-49
2022/09/05 01:58:54;;;;;;;7.43;3.08;;;17.80;99.90;;;;;;5093878;27;19977;-46
2022/09/05 02:01:27;;;;;;;6.05;3.15;;;17.50;99.90;;;;;;5095370;27;20035;-48
2022/09/05 02:04:29;;;;;;;6.03;3.20;;;17.50;99.90;;;;;;5081256;27;20032;-46
2022/09/05 02:07:21;;;;;;;5.40;3.10;;;17.60;99.90;;;;;;5080140;27;20039;-52
2022/09/05 02:10:17;;;;;;;4.43;2.60;;;17.50;99.90;;;;;;5095356;27;20535;-48
2022/09/05 02:12:50;;;;;;;7.85;3.20;;;17.40;99.90;;;;;;5095951;28;20119;-46
2022/09/05 02:15:21;;;;;;;6.68;3.10;;;17.30;99.90;;;;;;5095398;27;21010;-46
2022/09/05 02:18:03;;;;;;;7.30;3.38;;;17.30;99.90;;;;;;5095836;27;20641;-48
2022/09/05 02:20:47;;;;;;;6.95;3.03;;;17.30;99.90;;;;;;5096021;27;20048;-50
2022/09/05 02:23:47;;;;;;;5.72;3.22;;;17.20;99.90;;;;;;5095600;28;21102;-46
2022/09/05 02:26:24;;;;;;;8.07;3.22;;;17.20;99.90;;;;;;5096429;28;20126;-47
2022/09/05 02:29:02;;;;;;;7.28;3.28;;;17.10;99.90;;;;;;5096157;28;20096;-49
2022/09/05 02:31:33;;;;;;;5.82;3.50;;;17.20;99.90;;;;;;5095931;28;20051;-46
2022/09/05 02:34:28;;;;;;;8.35;3.40;;;17.20;99.90;;;;;;5095836;27;20079;-49
2022/09/05 02:37:21;;;;;;;5.63;3.33;;;17.10;99.90;;;;;;5081036;27;20055;-45
2022/09/05 02:40:23;;;;;;;10.35;3.47;;;17.20;99.90;;;;;;5096368;27;20048;-49
2022/09/05 02:42:58;;;;;;;5.53;3.15;;;17.00;99.90;;;;;;5095886;27;20054;-50
2022/09/05 02:45:45;;;;;;;7.53;3.72;;;16.90;99.90;;;;;;5097076;27;20093;-49
2022/09/05 02:48:27;;;;;;;6.38;3.53;;;17.10;99.90;;;;;;5095354;28;20066;-51
2022/09/05 02:51:11;;;;;;;5.65;3.40;;;16.90;99.90;;;;;;5095903;27;20051;-49
2022/09/05 02:53:41;;;;;;;6.03;3.90;;;16.90;99.90;;;;;;5097049;27;20047;-46
2022/09/05 02:56:18;;;;;;;5.55;3.88;;;16.80;99.90;;;;;;5096220;27;20052;-48
2022/09/05 02:58:58;;;;;;;5.43;3.50;;;16.70;99.90;;;;;;5094357;27;20051;-50
2022/09/05 03:01:59;;;;;;;9.68;4.22;;;16.80;99.90;;;;;;5094380;27;20526;-49
2022/09/05 03:04:45;;;;;;;5.63;3.40;;;16.70;99.90;;;;;;5095915;27;20036;-48
2022/09/05 03:07:40;;;;;;;5.88;3.65;;;16.70;99.90;;;;;;5095613;27;20035;-50
2022/09/05 03:10:30;;;;;;;7.20;3.80;;;16.70;99.90;;;;;;5085832;28;20516;-50
2022/09/05 03:13:18;;;;;;;8.30;3.80;;;16.70;99.90;;;;;;5095526;27;20101;-50
2022/09/05 03:16:15;;;;;;;7.47;4.00;;;16.50;99.90;;;;;;5094890;27;20063;-49
2022/09/05 03:19:19;;;;;;;7.63;4.07;;;16.50;99.90;;;;;;5090098;28;20079;-48
2022/09/05 03:22:09;;;;;;;7.35;4.18;;;16.40;99.90;;;;;;5095334;28;20103;-48
2022/09/05 03:25:08;;;;;;;7.65;4.53;;;16.40;99.90;;;;;;5095798;27;20039;-49
2022/09/05 03:27:55;;;;;;;7.05;4.15;;;16.40;99.90;;;;;;5094692;27;20180;-46
2022/09/05 03:30:24;;;;;;;8.85;4.28;;;16.30;99.90;;;;;;5094269;28;20516;-48
2022/09/05 03:33:24;;;;;;;8.95;4.05;;;16.20;99.90;;;;;;5093978;27;20071;-50
2022/09/05 03:36:08;;;;;;;8.82;4.18;;;16.20;99.90;;;;;;5095033;27;20047;-49
2022/09/05 03:39:21;;;;;;;12.40;4.20;;;16.30;99.90;;;;;;5094084;27;20047;-47
2022/09/05 03:42:11;;;;;;;;;;;16.30;99.90;;;;;;5094968;28;20040;-50
2022/09/05 03:45:01;;;;;;;7.80;4.50;;;16.20;99.90;;;;;;5093960;28;19927;-47
2022/09/05 03:48:04;;;;;;;9.73;4.53;;;15.90;99.90;;;;;;5094065;28;20040;-51
2022/09/05 03:50:50;;;;;;;7.43;4.43;;;16.20;99.90;;;;;;5093866;27;20047;-49
2022/09/05 03:53:58;;;;;;;10.02;4.40;;;16.20;99.90;;;;;;5095488;27;20055;-46
2022/09/05 03:56:37;;;;;;;7.18;4.55;;;16.10;99.90;;;;;;5094807;27;20039;-47
2022/09/05 03:59:02;;;;;;;7.03;4.47;;;16.10;99.90;;;;;;5095375;27;20040;-46
2022/09/05 04:01:34;;;;;;;6.53;4.45;;;16.20;99.90;;;;;;5093158;28;20036;-47
2022/09/05 04:04:42;;;;;;;7.22;4.55;;;15.80;99.90;;;;;;5093661;28;20101;-48
2022/09/05 04:07:28;;;;;;;9.07;4.70;;;15.90;99.90;;;;;;5094659;27;20032;-47
2022/09/05 04:10:24;;;;;;;9.20;4.45;;;15.70;99.90;;;;;;5095257;28;20044;-47
2022/09/05 04:13:13;;;;;;;6.20;3.85;;;15.80;99.90;;;;;;5093943;28;20052;-49
2022/09/05 04:16:19;;;;;;;9.68;4.80;;;15.80;99.90;;;;;;5093911;28;20051;-48
2022/09/05 04:18:48;;;;;;;7.60;4.70;;;15.50;99.90;;;;;;5093681;27;20043;-49
2022/09/05 04:21:38;;;;;;;8.25;4.60;;;15.60;99.90;;;;;;5093855;27;20403;-49
2022/09/05 04:24:17;;;;;;;7.22;4.70;;;15.70;99.90;;;;;;5094084;28;20048;-49
2022/09/05 04:27:04;;;;;;;10.18;4.75;;;15.60;99.90;;;;;;5093191;28;20040;-49
2022/09/05 04:29:41;;;;;;;8.73;5.40;;;15.60;99.90;;;;;;5095217;27;20146;-50
2022/09/05 04:32:54;;;;;;;7.07;4.68;;;15.40;99.90;;;;;;5093837;27;20108;-49
2022/09/05 04:35:46;;;;;;;11.68;4.78;;;15.70;99.90;;;;;;5049913;28;20537;-49
2022/09/05 04:38:32;;;;;;;7.70;5.07;;;15.50;99.90;;;;;;5050274;28;20052;-49
2022/09/05 04:41:17;;;;;;;9.07;5.15;;;15.70;99.90;;;;;;5086304;28;20054;-49
2022/09/05 04:43:50;;;;;;;7.00;5.35;;;15.40;99.90;;;;;;5093329;28;20483;-47
2022/09/05 04:46:47;;;;;;;11.35;6.93;;;15.50;99.90;;;;;;5093798;28;20039;-48
2022/09/05 04:49:21;;;;;;;7.55;5.63;;;16.00;99.90;;;;;;5084997;28;20048;-51
2022/09/05 04:52:24;;;;;;;8.77;5.82;;;15.50;99.90;;;;;;5094247;28;20039;-50
2022/09/05 04:55:01;;;;;;;13.13;5.90;;;15.40;99.90;;;;;;5098154;27;20050;-47
2022/09/05 04:57:44;;;;;;;10.98;5.68;;;15.50;99.90;;;;;;5100887;27;21610;-51
2022/09/05 05:00:24;;;;;;;8.13;5.50;;;15.60;99.90;;;;;;5101472;27;20040;-49
2022/09/05 05:02:59;;;;;;;11.73;6.10;;;15.50;99.90;;;;;;5099655;27;20396;-47
2022/09/05 05:05:38;;;;;;;8.38;5.70;;;15.50;99.90;;;;;;5100127;27;20043;-50
2022/09/05 05:08:21;;;;;;;8.27;5.22;;;15.50;99.90;;;;;;5100309;27;20047;-50
2022/09/05 05:10:53;;;;;;;6.85;5.53;;;15.30;99.90;;;;;;5097872;27;20124;-48
2022/09/05 05:13:53;;;;;;;9.27;5.22;;;15.50;99.90;;;;;;5100133;27;20066;-48
2022/09/05 05:16:24;;;;;;;8.90;5.45;;;15.50;99.90;;;;;;5100728;27;20346;-51
2022/09/05 05:19:05;;;;;;;7.53;5.00;;;15.50;99.90;;;;;;5099461;27;20160;-48
2022/09/05 05:21:32;;;;;;;10.43;5.70;;;15.50;99.90;;;;;;5100350;27;20096;-46
2022/09/05 05:24:09;;;;;;;9.55;5.68;;;15.50;99.90;;;;;;5102129;27;21216;-49
2022/09/05 05:26:34;;;;;;;12.73;5.88;;;15.50;99.90;;;;;;5099922;27;20050;-49
2022/09/05 05:29:17;;;;;;;10.10;5.20;;;15.60;99.90;;;;;;5100626;27;20035;-48
2022/09/05 05:31:53;;;;;;;8.73;6.05;;;15.50;99.90;;;;;;5099380;27;20047;-49
2022/09/05 05:34:26;;;;;;;10.40;5.78;;;15.50;99.90;;;;;;5099885;27;20047;-47
2022/09/05 05:37:28;;;;;;;7.55;5.50;;;15.60;99.90;;;;;;5098055;27;20587;-46
2022/09/05 05:40:10;;;;;;;8.63;5.25;;;15.80;99.90;;;;;;5064641;27;20468;-48
2022/09/05 05:42:38;;;;;;;7.03;5.30;;;15.70;99.90;;;;;;5097679;27;20039;-50
2022/09/05 05:45:37;;;;;;;7.68;5.63;;;15.90;99.90;;;;;;5098758;27;20043;-46
2022/09/05 05:48:05;;;;;;;9.95;6.40;;;16.00;99.90;;;;;;5083964;27;20062;-51
2022/09/05 05:50:55;;;;;;;8.40;5.15;;;16.10;99.90;;;;;;5100140;27;20526;-49
2022/09/05 05:53:44;;;;;;;8.30;5.50;;;16.00;99.90;;;;;;5101550;27;20090;-50
2022/09/05 05:56:19;;;;;;;10.40;5.50;;;16.20;99.90;;;;;;5099413;27;20070;-48
2022/09/05 05:58:57;;;;;;;8.60;5.72;;;16.30;99.90;;;;;;5100510;27;20040;-49
2022/09/05 06:01:35;;;;;;;8.73;5.50;;;16.40;99.90;;;;;;5097610;27;20039;-47
2022/09/05 06:04:21;;;;;;;10.60;6.10;;;16.40;99.90;;;;;;5099288;27;20046;-47
2022/09/05 06:07:16;;;;;;;9.90;5.32;;;16.60;99.90;;;;;;5095673;27;20160;-49
2022/09/05 06:10:01;;;;;;;14.48;5.32;;;16.70;99.90;;;;;;5076405;28;20098;-48
2022/09/05 06:12:46;;;;;;;6.93;5.18;;;17.20;99.90;;;;;;5095486;27;20079;-50
2022/09/05 06:15:49;;;;;;;8.35;4.75;;;17.50;99.90;;;;;;5096091;28;20671;-47
2022/09/05 06:18:49;;;;;;;9.57;4.68;;;17.90;99.90;;;;;;5097004;27;20062;-48
2022/09/05 06:21:38;;;;;;;7.63;4.93;;;19.30;99.90;;;;;;5096810;27;21190;-48
2022/09/05 06:24:32;;;;;;;7.47;4.82;;;20.20;99.90;;;;;;5096670;27;20766;-48
2022/09/05 06:27:35;;;;;;;9.98;4.90;;;21.30;99.90;;;;;;5096053;27;20054;-49
2022/09/05 06:30:08;;;;;;;8.15;4.25;;;22.20;99.90;;;;;;5097433;27;20065;-48
2022/09/05 06:33:08;;;;;;;7.13;4.38;;;22.80;99.90;;;;;;5095359;27;20490;-49
2022/09/05 06:35:59;;;;;;;6.72;3.90;;;23.50;99.90;;;;;;5095390;28;20058;-51
2022/09/05 06:38:46;;;;;;;7.90;4.00;;;24.20;99.90;;;;;;5095583;27;20047;-49
2022/09/05 06:41:48;;;;;;;6.18;3.75;;;24.80;99.90;;;;;;5095367;27;20098;-49
2022/09/05 06:44:51;;;;;;;9.48;4.10;;;25.30;99.90;;;;;;5095552;27;20047;-47
2022/09/05 06:47:19;;;;;;;7.32;4.03;;;26.00;99.90;;;;;;5095903;27;20100;-50
2022/09/05 06:50:04;;;;;;;6.68;3.90;;;26.40;99.90;;;;;;5093996;28;20044;-52
2022/09/05 06:52:43;;;;;;;5.65;3.70;;;26.30;99.90;;;;;;5094639;28;20090;-48
2022/09/05 06:56:00;;;;;;;6.25;3.53;;;26.40;99.90;;;;;;5096839;27;20035;-50
2022/09/05 06:58:40;;;;;;;7.03;4.07;;;25.50;99.90;;;;;;5070966;27;20411;-48
2022/09/05 07:01:08;;;;;;;7.00;3.63;;;25.10;99.90;;;;;;5095886;27;20084;-52
2022/09/05 07:03:56;;;;;;;7.70;3.60;;;27.80;99.90;;;;;;5094542;27;20054;-50
2022/09/05 07:06:47;;;;;;;7.22;3.70;;;25.70;99.90;;;;;;5094346;27;20063;-51
2022/09/05 07:09:32;;;;;;;5.65;3.55;;;26.20;99.90;;;;;;5094694;27;20058;-51
2022/09/05 07:11:57;;;;;;;6.50;3.80;;;26.50;99.90;;;;;;5092871;27;20059;-48
2022/09/05 07:14:30;;;;;;;6.88;3.83;;;27.30;99.90;;;;;;5093347;28;20044;-51
2022/09/05 07:17:04;;;;;;;8.02;3.53;;;27.60;99.90;;;;;;5093618;27;20079;-51
2022/09/05 07:19:52;;;;;;;6.72;3.83;;;28.00;98.70;;;;;;5094272;27;20091;-50
2022/09/05 07:22:54;;;;;;;7.40;3.78;;;28.20;98.60;;;;;;5095403;27;20114;-52
2022/09/05 07:25:25;;;;;;;8.05;3.63;;;28.00;97.90;;;;;;5093809;27;20079;-49
2022/09/05 07:28:08;;;;;;;7.75;3.47;;;27.80;98.60;;;;;;5095966;27;20133;-48
2022/09/05 07:30:37;;;;;;;7.43;3.60;;;26.70;98.10;;;;;;5096077;27;20122;-49
2022/09/05 07:33:03;;;;;;;5.72;3.97;;;26.00;99.50;;;;;;5094755;27;20047;-51
2022/09/05 07:35:33;;;;;;;6.22;4.00;;;25.10;99.90;;;;;;5095459;27;20054;-48
2022/09/05 07:38:16;;;;;;;5.80;3.70;;;25.00;99.90;;;;;;5095924;27;20188;-48
2022/09/05 07:41:17;;;;;;;9.23;3.97;;;24.40;99.90;;;;;;5094481;27;20512;-51
2022/09/05 07:43:45;;;;;;;6.93;4.13;;;24.20;99.90;;;;;;5092507;27;20382;-50
2022/09/05 07:46:19;;;;;;;7.45;4.38;;;24.10;99.90;;;;;;5094402;28;20373;-51
2022/09/05 07:49:15;;;;;;;9.90;4.70;;;24.00;99.90;;;;;;5093924;27;20046;-51
2022/09/05 07:52:05;;;;;;;9.15;3.95;;;23.90;99.90;;;;;;5090974;28;20134;-49
2022/09/05 07:54:40;;;;;;;9.45;4.35;;;24.10;99.90;;;;;;5095777;27;20067;-50
2022/09/05 07:57:08;;;;;;;7.65;4.15;;;23.90;99.90;;;;;;5094956;28;20051;-51
2022/09/05 07:59:39;;;;;;;6.50;4.32;;;23.80;99.90;;;;;;5095061;27;20051;-47
2022/09/05 08:02:07;;;;;;;9.07;3.47;;;23.80;99.90;;;;;;5095176;27;20058;-50
2022/09/05 08:04:36;;;;;;;7.57;3.92;;;23.90;99.90;;;;;;5094527;27;20067;-48
2022/09/05 08:07:05;;;;;;;7.35;4.03;;;23.90;99.90;;;;;;5093925;28;20075;-50
2022/09/05 08:09:36;;;;;;;5.82;4.05;;;24.00;99.90;;;;;;5093950;28;20119;-49
2022/09/05 08:12:16;;;;;;;6.40;4.10;;;24.00;99.90;;;;;;5092424;27;20069;-50
2022/09/05 08:14:42;;;;;;;5.72;3.97;;;24.00;99.90;;;;;;5093458;27;20050;-50
2022/09/05 08:17:22;;;;;;;6.60;3.80;;;23.90;99.90;;;;;;5095544;27;20452;-49
2022/09/05 08:20:13;;;;;;;6.97;3.70;;;23.90;99.90;;;;;;5094040;27;20043;-50
2022/09/05 08:22:50;;;;;;;6.05;4.13;;;23.90;99.90;;;;;;5093962;28;20051;-49
2022/09/05 08:25:39;;;;;;;6.93;4.22;;;24.00;99.90;;;;;;5092633;28;20040;-49
2022/09/05 08:28:25;;;;;;;8.70;4.18;;;23.80;99.90;;;;;;5092566;28;21331;-48
2022/09/05 08:31:05;;;;;;;7.00;4.30;;;23.60;99.90;;;;;;5094157;28;20051;-50
2022/09/05 08:33:34;;;;;;;6.40;3.70;;;23.40;99.90;;;;;;5093965;28;20036;-49
2022/09/05 08:36:08;;;;;;;9.25;3.88;;;23.30;99.90;;;;;;5094584;27;20104;-50
2022/09/05 08:38:37;;;;;;;9.95;4.18;;;23.50;99.90;;;;;;5094206;28;20092;-48
2022/09/05 08:41:13;;;;;;;7.47;3.65;;;23.50;99.90;;;;;;5094336;28;20042;-48
2022/09/05 08:43:49;;;;;;;5.97;3.17;;;23.80;99.90;;;;;;5094110;28;20138;-50
2022/09/05 08:46:27;;;;;;;5.82;3.80;;;23.70;99.90;;;;;;5093899;28;20067;-45
2022/09/05 08:49:21;;;;;;;7.28;3.55;;;24.00;99.90;;;;;;5092650;28;20140;-48
2022/09/05 08:51:49;;;;;;;6.68;4.63;;;24.10;99.90;;;;;;5094147;28;20044;-48
2022/09/05 08:54:29;;;;;;;9.70;4.22;;;24.20;99.90;;;;;;5093978;28;20040;-52
2022/09/05 08:57:23;;;;;;;8.30;3.80;;;24.10;99.90;;;;;;5093532;28;20035;-46
2022/09/05 09:00:01;;;;;;;8.10;4.40;;;24.00;99.90;;;;;;5093638;27;20100;-50
2022/09/05 09:02:42;;;;;;;6.72;3.72;;;24.00;99.90;;;;;;5094085;28;20042;-48
2022/09/05 09:05:22;;;;;;;8.57;3.63;;;24.00;99.90;;;;;;5092403;28;20048;-51
2022/09/05 09:08:03;;;;;;;8.80;3.63;;;23.90;99.90;;;;;;5093515;28;20063;-49
2022/09/05 09:10:47;;;;;;;7.70;3.85;;;24.30;99.90;;;;;;5093184;28;20530;-49
2022/09/05 09:13:15;;;;;;;6.65;4.00;;;24.30;99.90;;;;;;5090521;28;20142;-50
2022/09/05 09:16:05;;;;;;;10.05;3.35;;;24.20;99.90;;;;;;5092158;28;20407;-50
2022/09/05 09:18:51;;;;;;;6.38;3.00;;;24.30;99.90;;;;;;5092229;28;20046;-49
2022/09/05 09:21:23;;;;;;;41.97;4.90;;;24.60;99.90;;;;;;5085214;28;20048;-49
2022/09/05 09:24:09;;;;;;;9.20;4.00;;;24.50;99.90;;;;;;5093840;28;20478;-50
2022/09/05 09:26:53;;;;;;;7.50;3.60;;;24.80;99.90;;;;;;5092571;28;20035;-48
2022/09/05 09:29:20;;;;;;;8.52;3.92;;;24.70;99.90;;;;;;5092364;28;20066;-50
2022/09/05 09:32:00;;;;;;;6.20;3.58;;;24.60;99.90;;;;;;5093709;28;20104;-51
2022/09/05 09:34:28;;;;;;;7.28;4.32;;;24.90;99.90;;;;;;5091973;28;20115;-50
2022/09/05 09:37:15;;;;;;;8.25;3.42;;;24.90;99.90;;;;;;5091939;28;20054;-50
2022/09/05 09:40:04;;;;;;;6.47;3.63;;;25.00;99.90;;;;;;5125706;27;20043;-50
2022/09/05 09:42:40;;;;;;;7.38;3.38;;;24.00;99.90;;;;;;5076240;27;20047;-48
2022/09/05 09:45:42;;;;;;;6.78;3.17;;;25.50;99.90;;;;;;5096072;27;20044;-51
2022/09/05 09:48:45;;;;;;;7.40;3.25;;;25.70;99.90;;;;;;5096701;27;20056;-50
2022/09/05 09:51:35;;;;;;;7.35;3.45;;;25.90;99.90;;;;;;5096030;28;21019;-46
2022/09/05 09:54:39;;;;;;;8.52;3.10;;;26.20;99.90;;;;;;5095184;28;20153;-50
2022/09/05 09:57:16;;;;;;;9.75;2.88;;;26.30;99.90;;;;;;5097432;27;20036;-51
2022/09/05 09:59:56;;;;;;;5.43;3.00;;;26.30;99.90;;;;;;5096458;27;20081;-50
2022/09/05 10:03:01;;;;;;;7.85;3.30;;;26.30;99.90;;;;;;5096569;27;20040;-50
2022/09/05 10:06:04;;;;;;;6.32;2.47;;;28.40;99.90;;;;;;5097213;27;20114;-50
2022/09/05 10:08:42;;;;;;;5.65;2.60;;;26.50;99.90;;;;;;5095980;28;20063;-47
2022/09/05 10:11:29;;;;;;;4.53;2.50;;;26.70;99.90;;;;;;5097328;27;20436;-45
2022/09/05 10:13:55;;;;;;;7.90;2.85;;;26.90;99.90;;;;;;5095905;27;20047;-46
2022/09/05 10:16:39;;;;;;;6.95;2.60;;;27.00;99.90;;;;;;5096093;27;20705;-46
2022/09/05 10:19:09;;;;;;;5.32;2.25;;;27.10;99.90;;;;;;5096178;27;20578;-46
2022/09/05 10:21:54;;;;;;;5.55;2.30;;;27.30;99.90;;;;;;5096920;28;20067;-49
2022/09/05 10:24:58;;;;;;;10.82;3.00;;;27.60;99.90;;;;;;5096648;27;20050;-48
2022/09/05 10:27:36;;;;;;;6.30;2.78;;;27.80;99.90;;;;;;5095082;27;20052;-51
2022/09/05 10:30:08;;;;;;;5.30;2.70;;;28.30;99.90;;;;;;5096622;27;20691;-49
2022/09/05 10:32:56;;;;;;;7.93;2.40;;;28.30;99.90;;;;;;5096996;28;20134;-51
2022/09/05 10:35:49;;;;;;;7.57;2.22;;;28.40;99.70;;;;;;5095693;27;20048;-52
2022/09/05 10:38:31;;;;;;;4.70;2.30;;;28.60;99.80;;;;;;5097062;27;20044;-47
2022/09/05 10:41:06;;;;;;;5.30;2.10;;;29.00;99.50;;;;;;5093543;27;20514;-50
2022/09/05 10:43:41;;;;;;;7.55;2.35;;;29.00;99.80;;;;;;5095435;27;20036;-48
2022/09/05 10:46:31;;;;;;;6.88;2.08;;;29.10;99.20;;;;;;5095368;28;20032;-49
2022/09/05 10:49:06;;;;;;;7.97;2.53;;;28.80;99.40;;;;;;5094941;28;20535;-45
2022/09/05 10:51:52;;;;;;;3.97;2.30;;;28.90;99.40;;;;;;5095811;27;20050;-48
2022/09/05 10:54:41;;;;;;;7.15;2.40;;;29.00;99.30;;;;;;5096264;27;20039;-50
2022/09/05 10:57:42;;;;;;;7.05;2.35;;;29.00;98.30;;;;;;5096683;27;20062;-47
2022/09/05 11:00:37;;;;;;;5.63;1.87;;;29.00;97.70;;;;;;5071725;28;20052;-49
2022/09/05 11:03:05;;;;;;;5.18;1.83;;;29.10;97.90;;;;;;5095887;27;20717;-50
2022/09/05 11:05:37;;;;;;;3.70;1.67;;;29.20;98.70;;;;;;5095149;27;20039;-48
2022/09/05 11:08:32;;;;;;;5.93;1.67;;;29.30;98.30;;;;;;5076278;28;20032;-50
2022/09/05 11:11:17;;;;;;;3.40;1.92;;;29.20;96.40;;;;;;5078729;28;20039;-45
2022/09/05 11:13:55;;;;;;;7.05;1.83;;;29.10;97.70;;;;;;5094377;27;20458;-48
2022/09/05 11:16:50;;;;;;;9.02;2.05;;;28.90;97.00;;;;;;5095336;27;20055;-51
2022/09/05 11:19:34;;;;;;;4.28;1.80;;;28.90;98.20;;;;;;5092490;27;20423;-49
2022/09/05 11:22:02;;;;;;;4.65;1.70;;;28.60;96.80;;;;;;5095939;27;20172;-50
2022/09/05 11:24:28;;;;;;;5.00;1.73;;;28.90;97.70;;;;;;5095440;27;20395;-50
2022/09/05 11:27:34;;;;;;;7.88;1.90;;;28.70;97.30;;;;;;5094812;27;20038;-49
2022/09/05 11:30:14;;;;;;;6.22;1.83;;;29.20;97.60;;;;;;5094205;28;20047;-50
2022/09/05 11:33:08;;;;;;;5.07;2.05;;;29.30;97.10;;;;;;5094626;27;20503;-50
2022/09/05 11:35:54;;;;;;;5.28;1.80;;;29.10;96.20;;;;;;5093790;28;20066;-49
2022/09/05 11:38:54;;;;;;;6.22;1.73;;;29.20;96.10;;;;;;5095452;27;20061;-48
2022/09/05 11:41:29;;;;;;;5.97;1.83;;;29.30;96.10;;;;;;5093869;28;20036;-49
2022/09/05 11:44:15;;;;;;;4.75;1.85;;;29.40;97.10;;;;;;5091655;28;20684;-46
2022/09/05 11:46:41;;;;;;;4.22;1.75;;;29.70;96.20;;;;;;5093538;27;20044;-48
2022/09/05 11:49:23;;;;;;;4.07;1.60;;;29.60;96.50;;;;;;5092645;28;20055;-45
2022/09/05 11:52:27;;;;;;;3.85;1.80;;;29.50;96.10;;;;;;5093748;27;20821;-47
2022/09/05 11:54:56;;;;;;;3.63;1.83;;;29.60;96.30;;;;;;5094209;27;20061;-44
2022/09/05 11:57:41;;;;;;;5.25;1.77;;;29.30;95.60;;;;;;5093900;27;20051;-48
2022/09/05 12:00:24;;;;;;;4.20;1.65;;;29.30;96.50;;;;;;5094748;27;20044;-47
2022/09/05 12:02:59;;;;;;;3.60;1.80;;;28.80;96.00;;;;;;5092967;28;20040;-46
2022/09/05 12:05:53;;;;;;;4.10;2.08;;;28.80;96.20;;;;;;5094037;28;20047;-49
2022/09/05 12:08:40;;;;;;;6.43;1.77;;;28.70;96.70;;;;;;5094225;28;20046;-49
2022/09/05 12:11:20;;;;;;;7.07;1.90;;;28.70;96.60;;;;;;5092782;27;20040;-50
2022/09/05 12:14:20;;;;;;;5.60;2.10;;;28.70;97.00;;;;;;5094510;27;20926;-49
2022/09/05 12:16:45;;;;;;;4.88;1.70;;;28.70;96.70;;;;;;5078840;27;20134;-49
2022/09/05 12:19:31;;;;;;;5.50;1.85;;;28.80;96.80;;;;;;5091687;28;20053;-49
2022/09/05 12:22:15;;;;;;;5.03;1.80;;;29.20;97.00;;;;;;5092005;27;20054;-46
2022/09/05 12:25:14;;;;;;;5.35;1.98;;;29.20;96.20;;;;;;5094527;27;20048;-47
2022/09/05 12:27:46;;;;;;;6.60;2.03;;;29.10;96.50;;;;;;5093400;27;20045;-48
2022/09/05 12:30:20;;;;;;;;;;;28.90;96.80;;;;;;5093058;28;20040;-49
2022/09/05 12:33:09;;;;;;;4.53;1.88;;;28.90;96.90;;;;;;5092399;28;19919;-46
2022/09/05 12:35:45;;;;;;;6.82;1.83;;;28.70;96.10;;;;;;5089424;28;20722;-48
2022/09/05 12:38:31;;;;;;;5.68;1.80;;;28.80;96.50;;;;;;5092294;27;20031;-48
2022/09/05 12:41:07;;;;;;;3.38;1.40;;;28.50;96.70;;;;;;5092278;28;20036;-49
2022/09/05 12:43:34;;;;;;;6.50;1.67;;;28.00;95.70;;;;;;5091854;27;20490;-48
2022/09/05 12:46:25;;;;;;;4.47;1.90;;;28.20;96.40;;;;;;5092106;27;20070;-47
2022/09/05 12:49:14;;;;;;;5.18;1.75;;;28.50;95.90;;;;;;5085273;28;20066;-49
2022/09/05 12:51:52;;;;;;;5.53;1.80;;;29.00;95.70;;;;;;5093389;28;20511;-48
2022/09/05 12:54:29;;;;;;;5.55;1.90;;;29.30;95.90;;;;;;5092436;28;20039;-47
2022/09/05 12:57:01;;;;;;;3.67;1.60;;;29.50;95.40;;;;;;5094689;28;20043;-45
2022/09/05 12:59:28;;;;;;;3.20;1.80;;;29.40;95.30;;;;;;5093798;28;20043;-47
2022/09/05 13:02:02;;;;;;;4.60;1.67;;;29.30;95.30;;;;;;5092810;28;20127;-46
2022/09/05 13:04:39;;;;;;;5.15;1.50;;;29.40;95.10;;;;;;5093728;28;20082;-44
2022/09/05 13:07:09;;;;;;;4.07;1.50;;;29.60;95.20;;;;;;5092863;28;20042;-44
2022/09/05 13:09:46;;;;;;;9.85;1.77;;;29.80;95.10;;;;;;5092857;28;20525;-48
2022/09/05 13:12:28;;;;;;;3.58;1.70;;;30.10;94.10;;;;;;5092394;28;21008;-46
2022/09/05 13:15:04;;;;;;;6.78;1.50;;;30.00;94.60;;;;;;5093666;28;20039;-46
2022/09/05 13:17:49;;;;;;;4.00;1.75;;;29.70;92.80;;;;;;5096340;28;20105;-44
2022/09/05 13:20:31;;;;;;;4.22;1.45;;;29.50;93.10;;;;;;5097080;27;20443;-46
2022/09/05 13:23:03;;;;;;;4.55;1.50;;;29.40;93.60;;;;;;5096370;27;20055;-51
2022/09/05 13:25:32;;;;;;;11.93;1.90;;;29.30;93.70;;;;;;5096574;27;20059;-47
2022/09/05 13:28:08;;;;;;;2.88;1.33;;;29.30;94.00;;;;;;5097031;27;20044;-47
2022/09/05 13:30:38;;;;;;;5.50;1.40;;;29.20;94.00;;;;;;5096864;27;20517;-44
2022/09/05 13:33:22;;;;;;;6.47;1.63;;;29.60;93.90;;;;;;5097192;27;20036;-47
2022/09/05 13:36:04;;;;;;;6.75;1.30;;;29.80;93.20;;;;;;5096926;27;20058;-46
2022/09/05 13:39:16;;;;;;;4.28;1.40;;;29.90;93.60;;;;;;5096796;27;20067;-45
2022/09/05 13:41:47;;;;;;;5.47;1.27;;;30.30;92.70;;;;;;5091777;27;20054;-46
2022/09/05 13:44:24;;;;;;;2.35;1.23;;;30.20;92.20;;;;;;5096834;27;20071;-47
2022/09/05 13:47:23;;;;;;;6.28;1.40;;;30.00;92.00;;;;;;5094409;27;20051;-49
2022/09/05 13:49:55;;;;;;;5.32;1.48;;;29.80;91.90;;;;;;5094601;27;20047;-45
2022/09/05 13:52:36;;;;;;;3.58;1.40;;;29.60;92.80;;;;;;5097608;27;20420;-49
2022/09/05 13:55:14;;;;;;;4.05;1.52;;;30.00;92.60;;;;;;5097297;27;20036;-48
2022/09/05 13:57:53;;;;;;;4.03;1.58;;;29.50;93.10;;;;;;5096870;27;20139;-45
2022/09/05 14:00:42;;;;;;;4.63;1.60;;;29.80;92.30;;;;;;5095733;27;23440;-49
2022/09/05 14:03:26;;;;;;;3.45;1.30;;;29.90;91.80;;;;;;5096169;28;20743;-44
2022/09/05 14:06:04;;;;;;;2.90;1.50;;;30.10;92.40;;;;;;5097285;27;20502;-44
2022/09/05 14:08:49;;;;;;;3.40;1.30;;;30.40;91.50;;;;;;5096580;28;20039;-46
2022/09/05 14:11:39;;;;;;;4.05;1.33;;;30.50;91.60;;;;;;5096194;27;20067;-49